Time,TemperatureF,DewpointF,PressureIn,WindDirection,WindDirectionDegrees,WindSpeedMPH,WindSpeedGustMPH,Humidity,HourlyPrecipIn,Conditions,Clouds,dailyrainin,SoftwareType,DateUTC
2013-10-06 00:03:00,45.3,22.5,30.21,WSW,243,0.0,0.0,40,0.00,,,0.00,meteobridge,2013-10-06 06:03:00,
2013-10-06 00:08:00,45.3,22.5,30.21,WSW,243,0.0,0.9,40,0.00,,,0.00,meteobridge,2013-10-06 06:08:00,
2013-10-06 00:13:00,45.1,22.3,30.21,WSW,243,0.9,0.9,40,0.00,,,0.00,meteobridge,2013-10-06 06:13:00,
2013-10-06 00:18:00,45.9,22.3,30.21,WSW,243,0.0,0.0,39,0.00,,,0.00,meteobridge,2013-10-06 06:18:00,
2013-10-06 00:24:00,46.0,21.9,30.21,NW,322,0.9,0.9,38,0.00,,,0.00,meteobridge,2013-10-06 06:24:00,
2013-10-06 00:29:00,46.6,21.7,30.21,North,5,2.0,2.0,37,0.00,,,0.00,meteobridge,2013-10-06 06:29:00,
2013-10-06 00:34:00,47.5,21.2,30.21,NNW,327,0.9,2.0,35,0.00,,,0.00,meteobridge,2013-10-06 06:34:00,
2013-10-06 00:39:00,47.7,21.4,30.22,NNW,348,0.0,2.0,35,0.00,,,0.00,meteobridge,2013-10-06 06:39:00,
2013-10-06 00:44:00,47.7,21.4,30.21,NNW,327,0.0,2.0,35,0.00,,,0.00,meteobridge,2013-10-06 06:44:00,
2013-10-06 00:49:00,47.7,21.4,30.21,North,355,0.0,2.9,35,0.00,,,0.00,meteobridge,2013-10-06 06:49:00,
2013-10-06 00:54:00,47.5,21.2,30.22,NNW,346,0.0,2.0,35,0.00,,,0.00,meteobridge,2013-10-06 06:54:00,
2013-10-06 00:59:00,47.8,20.8,30.22,WNW,282,2.9,4.9,34,0.00,,,0.00,meteobridge,2013-10-06 06:59:00,
2013-10-06 01:04:00,48.0,21.0,30.21,NNW,346,2.0,2.9,34,0.00,,,0.00,meteobridge,2013-10-06 07:04:00,
2013-10-06 01:09:00,48.0,21.0,30.22,NNW,333,0.0,2.9,34,0.00,,,0.00,meteobridge,2013-10-06 07:09:00,
2013-10-06 01:14:00,47.7,20.7,30.22,NNW,347,0.0,0.0,34,0.00,,,0.00,meteobridge,2013-10-06 07:14:00,
2013-10-06 01:19:00,46.8,21.9,30.22,NNW,347,0.0,0.9,37,0.00,,,0.00,meteobridge,2013-10-06 07:19:00,
2013-10-06 01:25:00,45.3,22.5,30.22,NNW,348,0.0,0.0,40,0.00,,,0.00,meteobridge,2013-10-06 07:25:00,
2013-10-06 01:30:00,44.8,23.0,30.22,NNW,348,0.0,0.0,42,0.00,,,0.00,meteobridge,2013-10-06 07:30:00,
2013-10-06 01:35:00,44.2,23.2,30.22,NNW,347,0.0,0.0,43,0.00,,,0.00,meteobridge,2013-10-06 07:35:00,
2013-10-06 01:40:00,44.1,22.5,30.22,North,355,0.0,2.0,42,0.00,,,0.00,meteobridge,2013-10-06 07:40:00,
2013-10-06 01:45:00,43.5,23.5,30.22,North,355,0.0,0.0,45,0.00,,,0.00,meteobridge,2013-10-06 07:45:00,
2013-10-06 01:50:00,43.3,23.9,30.22,North,355,0.0,0.0,46,0.00,,,0.00,meteobridge,2013-10-06 07:50:00,
2013-10-06 01:55:00,43.0,23.5,30.23,North,355,0.0,0.0,46,0.00,,,0.00,meteobridge,2013-10-06 07:55:00,
2013-10-06 02:00:00,43.0,23.5,30.23,North,355,0.0,0.0,46,0.00,,,0.00,meteobridge,2013-10-06 08:00:00,
2013-10-06 02:05:00,42.4,24.1,30.23,NNE,13,0.0,0.9,48,0.00,,,0.00,meteobridge,2013-10-06 08:05:00,
2013-10-06 02:11:00,42.8,23.9,30.24,ESE,106,0.0,0.0,47,0.00,,,0.00,meteobridge,2013-10-06 08:11:00,
2013-10-06 02:16:00,42.4,23.7,30.23,ESE,106,0.0,0.0,47,0.00,,,0.00,meteobridge,2013-10-06 08:16:00,
2013-10-06 02:21:00,42.1,23.7,30.23,ESE,106,0.0,0.0,48,0.00,,,0.00,meteobridge,2013-10-06 08:21:00,
2013-10-06 02:26:00,41.5,23.7,30.23,ESE,106,0.0,0.0,49,0.00,,,0.00,meteobridge,2013-10-06 08:26:00,
2013-10-06 02:31:00,41.5,24.3,30.23,ESE,106,0.0,0.0,50,0.00,,,0.00,meteobridge,2013-10-06 08:31:00,
2013-10-06 02:36:00,41.2,24.4,30.23,ESE,106,0.0,0.0,51,0.00,,,0.00,meteobridge,2013-10-06 08:36:00,
2013-10-06 02:41:00,40.5,24.3,30.23,ESE,106,0.0,0.0,52,0.00,,,0.00,meteobridge,2013-10-06 08:41:00,
2013-10-06 02:47:00,40.3,24.4,30.23,ESE,106,0.0,0.0,53,0.00,,,0.00,meteobridge,2013-10-06 08:47:00,
2013-10-06 02:52:00,40.1,24.3,30.24,ESE,106,0.0,0.0,53,0.00,,,0.00,meteobridge,2013-10-06 08:52:00,
2013-10-06 02:57:00,39.7,25.0,30.24,ESE,106,0.0,0.0,55,0.00,,,0.00,meteobridge,2013-10-06 08:57:00,
2013-10-06 03:03:00,39.7,24.4,30.24,ESE,106,0.0,0.0,54,0.00,,,0.00,meteobridge,2013-10-06 09:03:00,
2013-10-06 03:08:00,39.7,24.4,30.24,ESE,106,0.0,0.0,54,0.00,,,0.00,meteobridge,2013-10-06 09:08:00,
2013-10-06 03:13:00,39.7,25.0,30.24,ESE,106,0.0,0.0,55,0.00,,,0.00,meteobridge,2013-10-06 09:13:00,
2013-10-06 03:14:00,39.7,24.4,30.24,ESE,106,0.0,0.0,54,0.00,,,0.00,meteobridge,2013-10-06 09:14:00,
2013-10-06 03:19:00,40.1,24.3,30.24,ESE,106,0.0,0.0,53,0.00,,,0.00,meteobridge,2013-10-06 09:19:00,
2013-10-06 03:25:00,40.1,24.3,30.24,ESE,106,0.0,0.0,53,0.00,,,0.00,meteobridge,2013-10-06 09:25:00,
2013-10-06 03:30:00,39.9,24.3,30.24,ESE,106,0.0,0.0,53,0.00,,,0.00,meteobridge,2013-10-06 09:30:00,
2013-10-06 03:35:00,39.9,24.3,30.24,ESE,106,0.0,0.9,53,0.00,,,0.00,meteobridge,2013-10-06 09:35:00,
2013-10-06 03:40:00,39.9,24.3,30.24,ESE,106,0.0,0.0,53,0.00,,,0.00,meteobridge,2013-10-06 09:40:00,
2013-10-06 03:46:00,39.7,24.4,30.24,ESE,106,0.0,0.0,54,0.00,,,0.00,meteobridge,2013-10-06 09:46:00,
2013-10-06 03:51:00,39.4,24.1,30.24,ESE,106,0.0,0.0,54,0.00,,,0.00,meteobridge,2013-10-06 09:51:00,
2013-10-06 03:56:00,39.6,24.3,30.24,ESE,106,0.0,0.0,54,0.00,,,0.00,meteobridge,2013-10-06 09:56:00,
2013-10-06 04:01:00,39.9,23.7,30.24,NNE,30,0.0,0.0,52,0.00,,,0.00,meteobridge,2013-10-06 10:01:00,
2013-10-06 04:06:00,40.5,22.8,30.24,North,5,0.9,4.9,49,0.00,,,0.00,meteobridge,2013-10-06 10:06:00,
2013-10-06 04:11:00,41.7,21.9,30.24,NNW,344,0.0,0.9,45,0.00,,,0.00,meteobridge,2013-10-06 10:11:00,
2013-10-06 04:16:00,42.3,22.5,30.24,NNW,344,0.0,0.0,45,0.00,,,0.00,meteobridge,2013-10-06 10:16:00,
2013-10-06 04:21:00,41.7,22.5,30.24,NNW,344,0.0,0.0,46,0.00,,,0.00,meteobridge,2013-10-06 10:21:00,
2013-10-06 04:27:00,41.4,22.6,30.24,NNW,344,0.0,0.0,47,0.00,,,0.00,meteobridge,2013-10-06 10:27:00,
2013-10-06 04:32:00,40.6,23.0,30.24,NNW,344,0.0,0.0,49,0.00,,,0.00,meteobridge,2013-10-06 10:32:00,
2013-10-06 04:37:00,39.9,23.2,30.24,NNW,344,0.0,0.0,51,0.00,,,0.00,meteobridge,2013-10-06 10:37:00,
2013-10-06 04:42:00,39.4,23.7,30.24,NNW,344,0.0,0.0,53,0.00,,,0.00,meteobridge,2013-10-06 10:42:00,
2013-10-06 04:47:00,38.7,23.9,30.24,NNW,344,0.0,0.0,55,0.00,,,0.00,meteobridge,2013-10-06 10:47:00,
2013-10-06 04:52:00,38.5,24.1,30.24,NNW,344,0.0,0.0,56,0.00,,,0.00,meteobridge,2013-10-06 10:52:00,
2013-10-06 04:57:00,38.3,23.9,30.24,NNW,344,0.0,0.0,56,0.00,,,0.00,meteobridge,2013-10-06 10:57:00,
2013-10-06 05:02:00,38.1,23.9,30.24,NNW,344,0.0,0.0,56,0.00,,,0.00,meteobridge,2013-10-06 11:02:00,
2013-10-06 05:08:00,37.8,23.9,30.24,NNW,344,0.0,0.0,57,0.00,,,0.00,meteobridge,2013-10-06 11:08:00,
2013-10-06 05:13:00,37.8,24.3,30.25,NNW,344,0.0,0.0,58,0.00,,,0.00,meteobridge,2013-10-06 11:13:00,
2013-10-06 05:19:00,37.6,24.1,30.25,NNW,344,0.0,0.0,58,0.00,,,0.00,meteobridge,2013-10-06 11:19:00,
2013-10-06 05:24:00,37.6,24.1,30.25,NNW,344,0.0,0.0,58,0.00,,,0.00,meteobridge,2013-10-06 11:24:00,
2013-10-06 05:29:00,37.2,24.6,30.25,NNW,344,0.0,0.0,60,0.00,,,0.00,meteobridge,2013-10-06 11:29:00,
2013-10-06 05:34:00,36.9,24.3,30.25,NNW,344,0.0,0.0,60,0.00,,,0.00,meteobridge,2013-10-06 11:34:00,
2013-10-06 05:39:00,36.9,25.0,30.25,NNW,344,0.0,0.0,62,0.00,,,0.00,meteobridge,2013-10-06 11:39:00,
2013-10-06 05:45:00,36.9,24.6,30.25,NNW,344,0.0,0.0,61,0.00,,,0.00,meteobridge,2013-10-06 11:45:00,
2013-10-06 05:50:00,36.7,25.0,30.25,NNW,344,0.0,0.0,62,0.00,,,0.00,meteobridge,2013-10-06 11:50:00,
2013-10-06 05:55:00,36.7,25.0,30.26,North,355,0.0,0.0,62,0.00,,,0.00,meteobridge,2013-10-06 11:55:00,
2013-10-06 06:00:00,37.0,24.8,30.26,North,355,0.0,0.0,61,0.00,,,0.00,meteobridge,2013-10-06 12:00:00,
2013-10-06 06:06:00,37.0,24.4,30.26,North,355,0.0,0.0,60,0.00,,,0.00,meteobridge,2013-10-06 12:06:00,
2013-10-06 06:11:00,36.7,24.4,30.27,North,355,0.0,0.0,61,0.00,,,0.00,meteobridge,2013-10-06 12:11:00,
2013-10-06 06:16:00,36.3,24.1,30.27,North,5,0.0,0.9,61,0.00,,,0.00,meteobridge,2013-10-06 12:16:00,
2013-10-06 06:21:00,36.1,24.8,30.27,NNE,14,0.0,0.0,63,0.00,,,0.00,meteobridge,2013-10-06 12:21:00,
2013-10-06 06:27:00,36.1,24.8,30.27,NNE,14,0.0,0.0,63,0.00,,,0.00,meteobridge,2013-10-06 12:27:00,
2013-10-06 06:32:00,36.3,24.1,30.27,East,100,0.0,0.0,61,0.00,,,0.00,meteobridge,2013-10-06 12:32:00,
2013-10-06 06:37:00,36.7,24.4,30.27,East,100,0.0,0.0,61,0.00,,,0.00,meteobridge,2013-10-06 12:37:00,
2013-10-06 06:42:00,36.1,24.4,30.27,East,100,0.0,0.0,62,0.00,,,0.00,meteobridge,2013-10-06 12:42:00,
2013-10-06 06:47:00,35.8,24.4,30.27,East,100,0.0,0.0,63,0.00,,,0.00,meteobridge,2013-10-06 12:47:00,
2013-10-06 06:52:00,35.8,24.4,30.27,East,100,0.0,0.0,63,0.00,,,0.00,meteobridge,2013-10-06 12:52:00,
2013-10-06 06:57:00,35.4,24.1,30.27,East,100,0.0,0.0,63,0.00,,,0.00,meteobridge,2013-10-06 12:57:00,
2013-10-06 07:03:00,35.2,24.3,30.27,East,100,0.0,0.0,64,0.00,,,0.00,meteobridge,2013-10-06 13:03:00,
2013-10-06 07:08:00,35.2,24.6,30.27,East,100,0.0,0.0,65,0.00,,,0.00,meteobridge,2013-10-06 13:08:00,
2013-10-06 07:13:00,35.2,24.3,30.27,East,100,0.0,0.0,64,0.00,,,0.00,meteobridge,2013-10-06 13:13:00,
2013-10-06 07:18:00,35.2,24.3,30.27,East,100,0.0,0.0,64,0.00,,,0.00,meteobridge,2013-10-06 13:18:00,
2013-10-06 07:24:00,35.2,24.3,30.28,East,100,0.0,0.0,64,0.00,,,0.00,meteobridge,2013-10-06 13:24:00,
2013-10-06 07:29:00,35.4,24.4,30.28,East,100,0.0,0.0,64,0.00,,,0.00,meteobridge,2013-10-06 13:29:00,
2013-10-06 07:34:00,36.0,24.3,30.28,East,100,0.0,0.9,62,0.00,,,0.00,meteobridge,2013-10-06 13:34:00,
2013-10-06 07:39:00,36.3,24.6,30.28,East,100,0.0,0.0,62,0.00,,,0.00,meteobridge,2013-10-06 13:39:00,
2013-10-06 07:45:00,37.0,24.8,30.29,East,100,0.0,0.0,61,0.00,,,0.00,meteobridge,2013-10-06 13:45:00,
2013-10-06 07:50:00,37.8,25.5,30.29,East,100,0.0,0.0,61,0.00,,,0.00,meteobridge,2013-10-06 13:50:00,
2013-10-06 07:55:00,38.3,25.7,30.29,East,100,0.0,0.0,60,0.00,,,0.00,meteobridge,2013-10-06 13:55:00,
2013-10-06 08:00:00,39.7,25.7,30.29,East,100,0.0,0.0,57,0.00,,,0.00,meteobridge,2013-10-06 14:00:00,
2013-10-06 08:05:00,41.0,25.2,30.29,NE,41,0.0,2.0,53,0.00,,,0.00,meteobridge,2013-10-06 14:05:00,
2013-10-06 08:10:00,42.3,23.5,30.30,NE,45,0.0,2.0,47,0.00,,,0.00,meteobridge,2013-10-06 14:10:00,
2013-10-06 08:15:00,43.3,23.9,30.30,NE,45,0.0,0.0,46,0.00,,,0.00,meteobridge,2013-10-06 14:15:00,
2013-10-06 08:21:00,43.9,22.8,30.30,NE,34,0.0,2.0,43,0.00,,,0.00,meteobridge,2013-10-06 14:21:00,
2013-10-06 08:26:00,44.2,23.2,30.30,NNE,22,0.9,2.9,43,0.00,,,0.00,meteobridge,2013-10-06 14:26:00,
2013-10-06 08:31:00,44.8,23.0,30.31,NNW,347,0.0,2.9,42,0.00,,,0.00,meteobridge,2013-10-06 14:31:00,
2013-10-06 08:36:00,45.1,23.4,30.30,NE,49,0.0,4.0,42,0.00,,,0.00,meteobridge,2013-10-06 14:36:00,
2013-10-06 08:41:00,45.9,22.8,30.31,NE,42,0.9,2.0,40,0.00,,,0.00,meteobridge,2013-10-06 14:41:00,
2013-10-06 08:46:00,45.9,22.3,30.31,ENE,65,0.9,2.9,39,0.00,,,0.00,meteobridge,2013-10-06 14:46:00,
2013-10-06 08:51:00,46.4,22.8,30.31,NNE,24,0.0,2.0,39,0.00,,,0.00,meteobridge,2013-10-06 14:51:00,
2013-10-06 08:56:00,46.9,22.1,30.31,North,351,0.9,2.9,37,0.00,,,0.00,meteobridge,2013-10-06 14:56:00,
2013-10-06 09:01:00,46.9,22.1,30.31,North,9,2.0,2.0,37,0.00,,,0.00,meteobridge,2013-10-06 15:01:00,
2013-10-06 09:06:00,47.3,21.7,30.32,North,350,0.0,0.9,36,0.00,,,0.00,meteobridge,2013-10-06 15:06:00,
2013-10-06 09:11:00,48.0,22.3,30.32,NNE,32,0.9,2.9,36,0.00,,,0.00,meteobridge,2013-10-06 15:11:00,
2013-10-06 09:16:00,48.6,22.8,30.32,NNE,19,0.0,2.0,36,0.00,,,0.00,meteobridge,2013-10-06 15:16:00,
2013-10-06 09:21:00,48.6,22.8,30.32,North,351,4.0,4.0,36,0.00,,,0.00,meteobridge,2013-10-06 15:21:00,
2013-10-06 09:26:00,48.7,22.3,30.32,NNW,347,0.0,0.9,35,0.00,,,0.00,meteobridge,2013-10-06 15:26:00,
2013-10-06 09:31:00,48.9,22.5,30.32,NNW,347,0.0,0.9,35,0.00,,,0.00,meteobridge,2013-10-06 15:31:00,
2013-10-06 09:37:00,49.6,23.2,30.32,WSW,256,0.9,2.0,35,0.00,,,0.00,meteobridge,2013-10-06 15:37:00,
2013-10-06 09:42:00,49.6,22.5,30.32,West,275,0.0,0.9,34,0.00,,,0.00,meteobridge,2013-10-06 15:42:00,
2013-10-06 09:47:00,50.4,23.0,30.32,NNW,338,0.9,2.0,34,0.00,,,0.00,meteobridge,2013-10-06 15:47:00,
2013-10-06 09:52:00,50.7,23.4,30.32,North,5,2.9,2.9,34,0.00,,,0.00,meteobridge,2013-10-06 15:52:00,
2013-10-06 09:57:00,50.5,22.5,30.32,NNE,16,0.0,2.9,33,0.00,,,0.00,meteobridge,2013-10-06 15:57:00,
2013-10-06 10:02:00,50.4,22.3,30.32,NE,45,4.0,4.0,33,0.00,,,0.00,meteobridge,2013-10-06 16:02:00,
2013-10-06 10:07:00,50.9,22.1,30.32,NNE,27,0.9,2.0,32,0.00,,,0.00,meteobridge,2013-10-06 16:07:00,
2013-10-06 10:12:00,51.6,22.6,30.32,NNW,342,0.0,2.0,32,0.00,,,0.00,meteobridge,2013-10-06 16:12:00,
2013-10-06 10:17:00,52.0,23.0,30.32,NW,324,0.0,2.0,32,0.00,,,0.00,meteobridge,2013-10-06 16:17:00,
2013-10-06 10:22:00,52.3,22.6,30.32,WNW,300,2.0,2.9,31,0.00,,,0.00,meteobridge,2013-10-06 16:22:00,
2013-10-06 10:27:00,52.5,22.8,30.32,NW,316,0.0,4.0,31,0.00,,,0.00,meteobridge,2013-10-06 16:27:00,
2013-10-06 10:33:00,52.9,22.3,30.31,NNW,327,0.0,2.0,30,0.00,,,0.00,meteobridge,2013-10-06 16:33:00,
2013-10-06 10:38:00,52.3,23.4,30.31,SSE,154,0.0,2.0,32,0.00,,,0.00,meteobridge,2013-10-06 16:38:00,
2013-10-06 10:43:00,53.4,22.8,30.31,NW,313,0.0,2.9,30,0.00,,,0.00,meteobridge,2013-10-06 16:43:00,
2013-10-06 10:49:00,53.4,22.8,30.31,WNW,292,0.9,0.9,30,0.00,,,0.00,meteobridge,2013-10-06 16:49:00,
2013-10-06 10:54:00,54.3,23.5,30.30,NNW,334,0.0,2.0,30,0.00,,,0.00,meteobridge,2013-10-06 16:54:00,
2013-10-06 10:59:00,54.3,22.6,30.30,North,355,0.0,2.0,29,0.00,,,0.00,meteobridge,2013-10-06 16:59:00,
2013-10-06 11:04:00,54.9,22.3,30.30,NNE,32,0.0,2.9,28,0.00,,,0.00,meteobridge,2013-10-06 17:04:00,
2013-10-06 11:09:00,55.2,22.6,30.30,SSW,205,2.0,2.0,28,0.00,,,0.00,meteobridge,2013-10-06 17:09:00,
2013-10-06 11:14:00,56.1,23.4,30.30,NW,323,2.0,4.9,28,0.00,,,0.00,meteobridge,2013-10-06 17:14:00,
2013-10-06 11:19:00,55.9,22.5,30.29,NNE,32,0.9,0.9,27,0.00,,,0.00,meteobridge,2013-10-06 17:19:00,
2013-10-06 11:24:00,56.8,24.1,30.29,NNE,18,4.0,4.0,28,0.00,,,0.00,meteobridge,2013-10-06 17:24:00,
2013-10-06 11:30:00,56.7,21.2,30.29,NE,38,2.0,4.0,25,0.00,,,0.00,meteobridge,2013-10-06 17:30:00,
2013-10-06 11:35:00,56.1,21.7,30.29,NNE,19,2.9,2.9,26,0.00,,,0.00,meteobridge,2013-10-06 17:35:00,
2013-10-06 11:40:00,57.4,22.8,30.29,NNW,341,0.0,2.9,26,0.00,,,0.00,meteobridge,2013-10-06 17:40:00,
2013-10-06 11:45:00,57.6,23.0,30.29,NNW,327,0.9,2.0,26,0.00,,,0.00,meteobridge,2013-10-06 17:45:00,
2013-10-06 11:50:00,57.9,22.3,30.29,NE,53,2.0,2.9,25,0.00,,,0.00,meteobridge,2013-10-06 17:50:00,
2013-10-06 11:55:00,57.7,22.1,30.29,NW,321,0.9,4.0,25,0.00,,,0.00,meteobridge,2013-10-06 17:55:00,
2013-10-06 12:00:00,58.6,22.8,30.29,West,262,0.0,0.9,25,0.00,,,0.00,meteobridge,2013-10-06 18:00:00,
2013-10-06 12:05:00,59.2,23.4,30.28,NNW,342,0.9,4.0,25,0.00,,,0.00,meteobridge,2013-10-06 18:05:00,
2013-10-06 12:10:00,59.2,21.4,30.28,NNW,348,0.0,2.9,23,0.00,,,0.00,meteobridge,2013-10-06 18:10:00,
2013-10-06 12:15:00,59.4,21.6,30.28,ENE,71,0.0,0.9,23,0.00,,,0.00,meteobridge,2013-10-06 18:15:00,
2013-10-06 12:20:00,59.7,20.8,30.27,West,277,2.0,2.0,22,0.00,,,0.00,meteobridge,2013-10-06 18:20:00,
2013-10-06 12:25:00,61.0,21.9,30.27,NNE,26,2.0,6.0,22,0.00,,,0.00,meteobridge,2013-10-06 18:25:00,
2013-10-06 12:30:00,61.0,21.9,30.27,SW,218,0.0,4.9,22,0.00,,,0.00,meteobridge,2013-10-06 18:30:00,
2013-10-06 12:35:00,61.0,22.8,30.27,WNW,302,2.0,4.0,23,0.00,,,0.00,meteobridge,2013-10-06 18:35:00,
2013-10-06 12:40:00,61.7,23.5,30.26,WNW,300,0.9,2.9,23,0.00,,,0.00,meteobridge,2013-10-06 18:40:00,
2013-10-06 12:45:00,61.2,20.8,30.26,SW,232,2.0,4.0,21,0.00,,,0.00,meteobridge,2013-10-06 18:45:00,
2013-10-06 12:50:00,61.0,22.8,30.26,NNW,338,2.0,2.0,23,0.00,,,0.00,meteobridge,2013-10-06 18:50:00,
2013-10-06 12:56:00,62.1,21.7,30.25,North,0,2.0,2.9,21,0.00,,,0.00,meteobridge,2013-10-06 18:56:00,
2013-10-06 13:01:00,62.8,22.3,30.25,WSW,257,0.0,4.0,21,0.00,,,0.00,meteobridge,2013-10-06 19:01:00,
2013-10-06 13:06:00,62.8,21.0,30.24,SW,232,0.0,4.0,20,0.00,,,0.00,meteobridge,2013-10-06 19:06:00,
2013-10-06 13:11:00,62.6,21.0,30.24,North,9,0.9,2.9,20,0.00,,,0.00,meteobridge,2013-10-06 19:11:00,
2013-10-06 13:16:00,62.1,20.5,30.24,SW,220,2.0,2.9,20,0.00,,,0.00,meteobridge,2013-10-06 19:16:00,
2013-10-06 13:21:00,62.8,21.0,30.23,SW,233,0.0,2.9,20,0.00,,,0.00,meteobridge,2013-10-06 19:21:00,
2013-10-06 13:26:00,62.4,20.8,30.23,SE,145,2.0,2.0,20,0.00,,,0.00,meteobridge,2013-10-06 19:26:00,
2013-10-06 13:31:00,63.3,23.9,30.23,NNE,28,2.9,4.9,22,0.00,,,0.00,meteobridge,2013-10-06 19:31:00,
2013-10-06 13:36:00,64.4,23.5,30.22,South,181,2.9,2.9,21,0.00,,,0.00,meteobridge,2013-10-06 19:36:00,
2013-10-06 13:41:00,63.9,20.8,30.22,SW,229,0.9,2.9,19,0.00,,,0.00,meteobridge,2013-10-06 19:41:00,
2013-10-06 13:46:00,65.3,24.4,30.22,SW,222,2.9,4.9,21,0.00,,,0.00,meteobridge,2013-10-06 19:46:00,
2013-10-06 13:52:00,64.4,22.5,30.22,South,186,0.0,0.9,20,0.00,,,0.00,meteobridge,2013-10-06 19:52:00,
2013-10-06 13:57:00,65.1,21.7,30.21,SW,225,4.9,6.0,19,0.00,,,0.00,meteobridge,2013-10-06 19:57:00,
2013-10-06 14:02:00,65.5,24.4,30.21,North,351,2.0,2.9,21,0.00,,,0.00,meteobridge,2013-10-06 20:02:00,
2013-10-06 14:07:00,65.5,23.4,30.20,NW,307,0.9,6.0,20,0.00,,,0.00,meteobridge,2013-10-06 20:07:00,
2013-10-06 14:12:00,66.0,23.7,30.20,SW,224,4.0,4.0,20,0.00,,,0.00,meteobridge,2013-10-06 20:12:00,
2013-10-06 14:17:00,65.7,21.0,30.20,WNW,284,0.9,4.9,18,0.00,,,0.00,meteobridge,2013-10-06 20:17:00,
2013-10-06 14:22:00,65.8,21.2,30.19,NW,305,2.0,2.9,18,0.00,,,0.00,meteobridge,2013-10-06 20:22:00,
2013-10-06 14:27:00,67.1,22.1,30.19,NW,323,0.0,0.9,18,0.00,,,0.00,meteobridge,2013-10-06 20:27:00,
2013-10-06 14:32:00,66.9,22.1,30.19,WSW,244,2.9,4.0,18,0.00,,,0.00,meteobridge,2013-10-06 20:32:00,
2013-10-06 14:37:00,67.3,21.0,30.19,NNW,333,0.0,2.0,17,0.00,,,0.00,meteobridge,2013-10-06 20:37:00,
2013-10-06 14:42:00,66.7,21.9,30.19,NNW,333,2.9,2.9,18,0.00,,,0.00,meteobridge,2013-10-06 20:42:00,
2013-10-06 14:47:00,67.1,22.1,30.19,NW,317,0.9,2.9,18,0.00,,,0.00,meteobridge,2013-10-06 20:47:00,
2013-10-06 14:52:00,67.8,21.4,30.18,NW,315,0.9,2.9,17,0.00,,,0.00,meteobridge,2013-10-06 20:52:00,
2013-10-06 14:57:00,68.7,20.7,30.18,NNW,330,2.9,2.9,16,0.00,,,0.00,meteobridge,2013-10-06 20:57:00,
2013-10-06 15:02:00,69.1,21.0,30.18,South,191,0.9,2.9,16,0.00,,,0.00,meteobridge,2013-10-06 21:02:00,
2013-10-06 15:08:00,69.3,22.6,30.18,SSE,155,2.0,2.9,17,0.00,,,0.00,meteobridge,2013-10-06 21:08:00,
2013-10-06 15:13:00,69.6,21.4,30.17,WSW,255,2.0,2.9,16,0.00,,,0.00,meteobridge,2013-10-06 21:13:00,
2013-10-06 15:18:00,68.7,20.7,30.17,NW,309,0.9,2.0,16,0.00,,,0.00,meteobridge,2013-10-06 21:18:00,
2013-10-06 15:23:00,68.5,20.5,30.17,WSW,254,2.0,2.9,16,0.00,,,0.00,meteobridge,2013-10-06 21:23:00,
2013-10-06 15:28:00,68.5,20.5,30.17,NE,39,0.9,2.9,16,0.00,,,0.00,meteobridge,2013-10-06 21:28:00,
2013-10-06 15:33:00,69.4,21.2,30.16,ENE,61,0.9,2.9,16,0.00,,,0.00,meteobridge,2013-10-06 21:33:00,
2013-10-06 15:38:00,69.4,19.8,30.16,NNW,329,2.9,2.9,15,0.00,,,0.00,meteobridge,2013-10-06 21:38:00,
2013-10-06 15:43:00,68.7,19.2,30.16,NNW,339,0.9,2.0,15,0.00,,,0.00,meteobridge,2013-10-06 21:43:00,
2013-10-06 15:49:00,69.1,18.0,30.16,North,350,0.9,2.0,14,0.00,,,0.00,meteobridge,2013-10-06 21:49:00,
2013-10-06 15:54:00,69.1,21.0,30.16,WNW,298,2.0,4.0,16,0.00,,,0.00,meteobridge,2013-10-06 21:54:00,
2013-10-06 15:59:00,69.4,19.8,30.16,NNE,14,0.9,4.0,15,0.00,,,0.00,meteobridge,2013-10-06 21:59:00,
2013-10-06 16:04:00,69.3,18.0,30.16,NW,323,0.0,2.0,14,0.00,,,0.00,meteobridge,2013-10-06 22:04:00,
2013-10-06 16:09:00,69.4,18.1,30.16,SW,219,0.0,2.0,14,0.00,,,0.00,meteobridge,2013-10-06 22:09:00,
2013-10-06 16:14:00,68.7,19.2,30.16,SSW,208,0.9,2.0,15,0.00,,,0.00,meteobridge,2013-10-06 22:14:00,
2013-10-06 16:19:00,69.6,19.9,30.15,SSW,194,0.9,2.0,15,0.00,,,0.00,meteobridge,2013-10-06 22:19:00,
2013-10-06 16:24:00,69.4,18.1,30.15,ESE,115,0.9,4.0,14,0.00,,,0.00,meteobridge,2013-10-06 22:24:00,
2013-10-06 16:30:00,69.6,19.9,30.15,NE,36,0.9,2.9,15,0.00,,,0.00,meteobridge,2013-10-06 22:30:00,
2013-10-06 16:35:00,70.2,18.7,30.15,SSE,148,2.0,2.9,14,0.00,,,0.00,meteobridge,2013-10-06 22:35:00,
2013-10-06 16:40:00,69.3,19.6,30.15,SSW,209,2.0,2.9,15,0.00,,,0.00,meteobridge,2013-10-06 22:40:00,
2013-10-06 16:45:00,69.6,18.3,30.15,WSW,246,0.0,2.9,14,0.00,,,0.00,meteobridge,2013-10-06 22:45:00,
2013-10-06 16:50:00,70.0,20.1,30.15,SW,217,2.9,4.0,15,0.00,,,0.00,meteobridge,2013-10-06 22:50:00,
2013-10-06 16:55:00,69.4,19.8,30.15,WSW,255,0.0,2.9,15,0.00,,,0.00,meteobridge,2013-10-06 22:55:00,
2013-10-06 17:00:00,70.2,20.3,30.15,SSW,197,4.0,4.0,15,0.00,,,0.00,meteobridge,2013-10-06 23:00:00,
2013-10-06 17:05:00,69.3,19.6,30.15,SSW,198,0.9,4.0,15,0.00,,,0.00,meteobridge,2013-10-06 23:05:00,
2013-10-06 17:10:00,68.9,19.4,30.15,SSW,198,0.0,0.0,15,0.00,,,0.00,meteobridge,2013-10-06 23:10:00,
2013-10-06 17:15:00,69.4,19.8,30.15,SSW,197,0.9,0.9,15,0.00,,,0.00,meteobridge,2013-10-06 23:15:00,
2013-10-06 17:20:00,69.4,19.8,30.15,SW,220,2.0,4.9,15,0.00,,,0.00,meteobridge,2013-10-06 23:20:00,
2013-10-06 17:25:00,69.4,19.8,30.15,SE,138,0.0,2.9,15,0.00,,,0.00,meteobridge,2013-10-06 23:25:00,
2013-10-06 17:30:00,69.3,21.2,30.15,SSW,212,0.9,2.9,16,0.00,,,0.00,meteobridge,2013-10-06 23:30:00,
2013-10-06 17:35:00,68.9,19.4,30.15,SW,214,0.9,4.0,15,0.00,,,0.00,meteobridge,2013-10-06 23:35:00,
2013-10-06 17:40:00,68.5,19.0,30.15,South,188,2.0,2.9,15,0.00,,,0.00,meteobridge,2013-10-06 23:40:00,
2013-10-06 17:46:00,68.4,18.9,30.15,South,170,2.9,2.9,15,0.00,,,0.00,meteobridge,2013-10-06 23:46:00,
2013-10-06 17:51:00,68.0,21.6,30.15,SSE,159,0.9,0.9,17,0.00,,,0.00,meteobridge,2013-10-06 23:51:00,
2013-10-06 17:56:00,68.2,21.7,30.15,SSE,165,0.0,0.0,17,0.00,,,0.00,meteobridge,2013-10-06 23:56:00,
2013-10-06 18:01:00,67.6,19.8,30.15,West,259,0.0,0.9,16,0.00,,,0.00,meteobridge,2013-10-07 00:01:00,
2013-10-06 18:06:00,67.5,19.8,30.15,SW,222,0.0,0.9,16,0.00,,,0.00,meteobridge,2013-10-07 00:06:00,
2013-10-06 18:11:00,66.9,22.1,30.15,SW,222,0.0,0.9,18,0.00,,,0.00,meteobridge,2013-10-07 00:11:00,
2013-10-06 18:17:00,66.7,19.0,30.15,SW,222,0.0,0.9,16,0.00,,,0.00,meteobridge,2013-10-07 00:17:00,
2013-10-06 18:22:00,66.4,20.3,30.15,SW,222,0.0,2.0,17,0.00,,,0.00,meteobridge,2013-10-07 00:22:00,
2013-10-06 18:27:00,65.8,21.2,30.15,SW,221,0.0,0.0,18,0.00,,,0.00,meteobridge,2013-10-07 00:27:00,
2013-10-06 18:32:00,65.3,21.9,30.15,SW,215,0.0,2.0,19,0.00,,,0.00,meteobridge,2013-10-07 00:32:00,
2013-10-06 18:37:00,64.2,24.6,30.15,SW,215,0.0,0.9,22,0.00,,,0.00,meteobridge,2013-10-07 00:37:00,
2013-10-06 18:42:00,63.7,24.1,30.15,SW,215,0.0,0.9,22,0.00,,,0.00,meteobridge,2013-10-07 00:42:00,
2013-10-06 18:47:00,63.0,25.5,30.15,SW,215,0.0,0.0,24,0.00,,,0.00,meteobridge,2013-10-07 00:47:00,
2013-10-06 18:52:00,62.2,26.1,30.15,SW,215,0.0,0.0,25,0.00,,,0.00,meteobridge,2013-10-07 00:52:00,
2013-10-06 18:57:00,61.3,25.2,30.15,SW,215,0.0,0.0,25,0.00,,,0.00,meteobridge,2013-10-07 00:57:00,
2013-10-06 19:02:00,60.6,26.4,30.15,SW,215,0.0,0.0,27,0.00,,,0.00,meteobridge,2013-10-07 01:02:00,
2013-10-06 19:07:00,60.3,25.2,30.15,SW,215,0.0,0.0,26,0.00,,,0.00,meteobridge,2013-10-07 01:07:00,
2013-10-06 19:12:00,60.3,26.1,30.15,SW,215,0.0,0.9,27,0.00,,,0.00,meteobridge,2013-10-07 01:12:00,
2013-10-06 19:17:00,60.1,25.2,30.15,SW,215,0.0,0.0,26,0.00,,,0.00,meteobridge,2013-10-07 01:17:00,
2013-10-06 19:22:00,59.5,27.3,30.15,SW,215,0.0,0.0,29,0.00,,,0.00,meteobridge,2013-10-07 01:22:00,
2013-10-06 19:27:00,59.0,26.8,30.15,SW,215,0.0,0.0,29,0.00,,,0.00,meteobridge,2013-10-07 01:27:00,
2013-10-06 19:33:00,58.6,26.4,30.15,SW,215,0.0,0.0,29,0.00,,,0.00,meteobridge,2013-10-07 01:33:00,
2013-10-06 19:38:00,58.6,28.0,30.15,SW,215,0.0,0.0,31,0.00,,,0.00,meteobridge,2013-10-07 01:38:00,
2013-10-06 19:44:00,57.9,27.5,30.15,SW,215,0.0,0.0,31,0.00,,,0.00,meteobridge,2013-10-07 01:44:00,
2013-10-06 19:49:00,57.4,27.0,30.15,SW,215,0.0,0.0,31,0.00,,,0.00,meteobridge,2013-10-07 01:49:00,
2013-10-06 19:54:00,57.4,27.7,30.15,SW,215,0.0,0.0,32,0.00,,,0.00,meteobridge,2013-10-07 01:54:00,
2013-10-06 19:59:00,56.8,27.3,30.16,SW,215,0.0,0.0,32,0.00,,,0.00,meteobridge,2013-10-07 01:59:00,
2013-10-06 20:04:00,56.3,28.2,30.16,SW,215,0.0,0.0,34,0.00,,,0.00,meteobridge,2013-10-07 02:04:00,
2013-10-06 20:09:00,55.9,27.3,30.16,SW,215,0.0,0.0,33,0.00,,,0.00,meteobridge,2013-10-07 02:09:00,
2013-10-06 20:15:00,56.1,28.0,30.16,SW,215,0.0,0.9,34,0.00,,,0.00,meteobridge,2013-10-07 02:15:00,
2013-10-06 20:20:00,56.5,27.0,30.16,SW,215,0.0,0.0,32,0.00,,,0.00,meteobridge,2013-10-07 02:20:00,
2013-10-06 20:25:00,55.9,28.8,30.16,SW,215,0.9,0.9,35,0.00,,,0.00,meteobridge,2013-10-07 02:25:00,
2013-10-06 20:30:00,55.8,27.9,30.16,SSE,148,0.0,0.0,34,0.00,,,0.00,meteobridge,2013-10-07 02:30:00,
2013-10-06 20:36:00,55.8,28.6,30.17,SSE,148,0.0,0.0,35,0.00,,,0.00,meteobridge,2013-10-07 02:36:00,
2013-10-06 20:41:00,55.4,28.2,30.17,SSE,148,0.0,0.0,35,0.00,,,0.00,meteobridge,2013-10-07 02:41:00,
2013-10-06 20:46:00,55.0,27.9,30.17,SSE,148,0.0,0.9,35,0.00,,,0.00,meteobridge,2013-10-07 02:46:00,
2013-10-06 20:52:00,54.9,28.4,30.17,SSE,148,0.9,0.9,36,0.00,,,0.00,meteobridge,2013-10-07 02:52:00,
2013-10-06 20:57:00,54.3,28.6,30.17,SSE,148,0.0,0.0,37,0.00,,,0.00,meteobridge,2013-10-07 02:57:00,
2013-10-06 21:02:00,53.8,28.0,30.17,SSE,148,0.0,0.0,37,0.00,,,0.00,meteobridge,2013-10-07 03:02:00,
2013-10-06 21:07:00,52.9,29.8,30.17,SSE,148,0.0,0.0,41,0.00,,,0.00,meteobridge,2013-10-07 03:07:00,
2013-10-06 21:12:00,52.3,28.8,30.18,SSE,148,0.0,0.0,40,0.00,,,0.00,meteobridge,2013-10-07 03:12:00,
2013-10-06 21:17:00,52.0,29.7,30.18,SSE,148,0.0,0.0,42,0.00,,,0.00,meteobridge,2013-10-07 03:17:00,
2013-10-06 21:22:00,52.2,29.8,30.18,SSE,148,0.0,0.0,42,0.00,,,0.00,meteobridge,2013-10-07 03:22:00,
2013-10-06 21:27:00,52.5,29.5,30.18,SSE,148,0.0,0.0,41,0.00,,,0.00,meteobridge,2013-10-07 03:27:00,
2013-10-06 21:32:00,52.3,29.3,30.18,SSE,148,0.0,0.0,41,0.00,,,0.00,meteobridge,2013-10-07 03:32:00,
2013-10-06 21:37:00,52.0,28.9,30.19,SSE,148,0.0,0.0,41,0.00,,,0.00,meteobridge,2013-10-07 03:37:00,
2013-10-06 21:42:00,51.4,29.1,30.19,SSE,148,0.0,0.0,42,0.00,,,0.00,meteobridge,2013-10-07 03:42:00,
2013-10-06 21:48:00,51.6,29.3,30.19,SSE,148,0.0,0.0,42,0.00,,,0.00,meteobridge,2013-10-07 03:48:00,
2013-10-06 21:53:00,51.8,28.2,30.19,SSE,148,0.0,0.0,40,0.00,,,0.00,meteobridge,2013-10-07 03:53:00,
2013-10-06 21:58:00,51.6,29.3,30.19,SSE,148,0.0,0.0,42,0.00,,,0.00,meteobridge,2013-10-07 03:58:00,
2013-10-06 22:01:00,51.4,28.6,30.19,SSE,148,0.0,0.0,41,0.00,,,0.00,meteobridge,2013-10-07 04:01:00,
2013-10-06 22:02:00,51.4,28.6,30.19,SSE,148,0.0,0.0,41,0.00,,,0.00,meteobridge,2013-10-07 04:02:00,
2013-10-06 22:06:00,51.3,28.9,30.19,SSE,148,0.0,0.0,42,0.00,,,0.00,meteobridge,2013-10-07 04:06:00,
2013-10-06 22:08:00,51.3,28.9,30.19,SSE,148,0.0,0.0,42,0.00,,,0.00,meteobridge,2013-10-07 04:08:00,
2013-10-06 22:13:00,50.9,28.6,30.19,SSE,148,0.0,0.0,42,0.00,,,0.00,meteobridge,2013-10-07 04:13:00,
2013-10-06 22:18:00,50.5,28.9,30.19,SSE,148,0.0,0.0,43,0.00,,,0.00,meteobridge,2013-10-07 04:18:00,
2013-10-06 22:23:00,50.7,28.4,30.19,SSE,148,0.0,0.0,42,0.00,,,0.00,meteobridge,2013-10-07 04:23:00,
2013-10-06 22:28:00,51.3,26.6,30.19,ESE,106,0.0,0.0,38,0.00,,,0.00,meteobridge,2013-10-07 04:28:00,
2013-10-06 22:34:00,50.9,28.0,30.19,ESE,106,0.0,0.0,41,0.00,,,0.00,meteobridge,2013-10-07 04:34:00,
2013-10-06 22:39:00,50.4,27.5,30.19,ESE,106,0.0,0.0,41,0.00,,,0.00,meteobridge,2013-10-07 04:39:00,
2013-10-06 22:44:00,50.5,25.9,30.19,ESE,106,0.0,0.9,38,0.00,,,0.00,meteobridge,2013-10-07 04:44:00,
2013-10-06 22:49:00,50.2,28.0,30.19,ESE,106,0.0,0.9,42,0.00,,,0.00,meteobridge,2013-10-07 04:49:00,
2013-10-06 22:54:00,49.8,25.9,30.19,ESE,106,0.0,0.9,39,0.00,,,0.00,meteobridge,2013-10-07 04:54:00,
2013-10-06 22:59:00,50.7,27.3,30.19,ESE,106,0.0,0.0,40,0.00,,,0.00,meteobridge,2013-10-07 04:59:00,
2013-10-06 23:05:00,50.5,27.7,30.19,ESE,106,0.0,0.0,41,0.00,,,0.00,meteobridge,2013-10-07 05:05:00,
2013-10-06 23:10:00,50.4,26.4,30.19,ESE,106,0.9,0.9,39,0.00,,,0.00,meteobridge,2013-10-07 05:10:00,
2013-10-06 23:15:00,50.2,26.8,30.19,ESE,106,0.0,0.0,40,0.00,,,0.00,meteobridge,2013-10-07 05:15:00,
2013-10-06 23:20:00,50.2,25.0,30.19,ESE,106,0.0,0.0,37,0.00,,,0.00,meteobridge,2013-10-07 05:20:00,
2013-10-06 23:26:00,50.7,25.3,30.19,ESE,106,0.0,0.0,37,0.00,,,0.00,meteobridge,2013-10-07 05:26:00,
2013-10-06 23:31:00,50.5,24.6,30.19,ESE,106,0.0,0.0,36,0.00,,,0.00,meteobridge,2013-10-07 05:31:00,
2013-10-06 23:36:00,50.4,25.0,30.19,ESE,106,0.0,0.0,37,0.00,,,0.00,meteobridge,2013-10-07 05:36:00,
2013-10-06 23:41:00,49.8,25.2,30.19,ESE,106,0.0,0.9,38,0.00,,,0.00,meteobridge,2013-10-07 05:41:00,
2013-10-06 23:46:00,48.9,26.2,30.19,ESE,106,0.0,0.0,41,0.00,,,0.00,meteobridge,2013-10-07 05:46:00,
2013-10-06 23:52:00,48.2,26.2,30.19,ESE,106,0.0,0.0,42,0.00,,,0.00,meteobridge,2013-10-07 05:52:00,
2013-10-06 23:57:00,48.0,27.1,30.19,ESE,106,0.0,0.0,44,0.00,,,0.00,meteobridge,2013-10-07 05:57:00,